Impacts TAF Board INFO
FOR SITUATIONAL AWARENESS. NOT TO BE USED FOR FLIGHT PLANNING PURPOSES.
IDs:

KIAD - Washington/Dulles In, VA, US

Issued at 0536 UTC 22 Jul 2018
Updated at 0833 UTC 22 Jul 2018
Potential Impact None Slight Moderate High
Time<<22/21Z 22/22Z 22/23Z 23/00Z 23/01Z 23/02Z 23/03Z 23/04Z 23/05Z 23/06Z 23/07Z 23/08Z 23/09Z>>
Type PRVL PRVL PRVL PRVL PRVL PRVL PRVL PRVL PRVL PRVL PRVL PRVL PRVL
VIS >6 >6 >6 >6 >6 >6 >6 >6 >6 4 4 4 4
CIG 45 45 45 45 45 45 45 45 45 200 200 200 200
Cover OVC OVC OVC OVC OVC OVC OVC OVC OVC BKN BKN BKN BKN
FltCat VFR VFR VFR VFR VFR VFR VFR VFR VFR MVFR MVFR MVFR MVFR
WX -SHRA -SHRA -SHRA -SHRA -SHRA -SHRA -SHRA -SHRA -SHRA BR BR BR BR
WDir 130 130 130 130 130 130 130 130 130 140 140 140 140
WSpd 6 6 6 6 6 6 6 6 6 6 6 6 6
WGst -- -- -- -- -- -- -- -- -- -- -- -- --

Raw TAF
KIAD 220536Z 2206/2312 31011KT 6SM -RA BR OVC015
  FM220900 VRB03KT P6SM BKN035
  FM221500 14006KT P6SM BKN040
  FM221800 13006KT P6SM -SHRA OVC045
  FM230600 14006KT 4SM BR BKN200


METAR Board
Radar Display
Forecast Discussion

FOR SITUATIONAL AWARENESS. NOT TO BE USED FOR FLIGHT PLANNING PURPOSES.